sensor_id;sensor_type;location;lat;lon;timestamp;P1;durP1;ratioP1;P2;durP2;ratioP2
69841;SDS011;57138;51.326;-0.068;2022-08-04T00:04:07;6.68;;;1.85;;
69841;SDS011;57138;51.326;-0.068;2022-08-04T00:09:13;6.15;;;2.13;;
69841;SDS011;57138;51.326;-0.068;2022-08-04T00:11:48;8.82;;;3.03;;
69841;SDS011;57138;51.326;-0.068;2022-08-04T00:14:20;7.25;;;2.20;;
69841;SDS011;57138;51.326;-0.068;2022-08-04T00:16:47;8.55;;;1.90;;
69841;SDS011;57138;51.326;-0.068;2022-08-04T00:19:23;5.95;;;2.05;;
69841;SDS011;57138;51.326;-0.068;2022-08-04T00:21:59;7.85;;;1.90;;
69841;SDS011;57138;51.326;-0.068;2022-08-04T00:24:31;7.97;;;2.20;;
69841;SDS011;57138;51.326;-0.068;2022-08-04T00:26:58;7.28;;;1.70;;
69841;SDS011;57138;51.326;-0.068;2022-08-04T00:29:24;6.95;;;1.70;;
69841;SDS011;57138;51.326;-0.068;2022-08-04T00:31:51;4.53;;;1.80;;
69841;SDS011;57138;51.326;-0.068;2022-08-04T00:34:21;6.80;;;1.85;;
69841;SDS011;57138;51.326;-0.068;2022-08-04T00:36:49;6.30;;;2.03;;
69841;SDS011;57138;51.326;-0.068;2022-08-04T00:39:16;7.25;;;1.83;;
69841;SDS011;57138;51.326;-0.068;2022-08-04T00:41:51;7.90;;;2.22;;
69841;SDS011;57138;51.326;-0.068;2022-08-04T00:54:56;6.05;;;1.67;;
69841;SDS011;57138;51.326;-0.068;2022-08-04T00:57:53;7.07;;;1.83;;
69841;SDS011;57138;51.326;-0.068;2022-08-04T01:00:25;5.97;;;1.73;;
69841;SDS011;57138;51.326;-0.068;2022-08-04T01:05:48;6.97;;;1.90;;
69841;SDS011;57138;51.326;-0.068;2022-08-04T01:16:54;4.65;;;1.27;;
69841;SDS011;57138;51.326;-0.068;2022-08-04T01:25:08;6.63;;;2.33;;
69841;SDS011;57138;51.326;-0.068;2022-08-04T01:30:52;10.63;;;2.00;;
69841;SDS011;57138;51.326;-0.068;2022-08-04T01:33:22;9.88;;;1.95;;
69841;SDS011;57138;51.326;-0.068;2022-08-04T01:35:56;7.53;;;2.55;;
69841;SDS011;57138;51.326;-0.068;2022-08-04T01:38:38;9.25;;;2.85;;
69841;SDS011;57138;51.326;-0.068;2022-08-04T01:41:08;7.03;;;1.75;;
69841;SDS011;57138;51.326;-0.068;2022-08-04T01:43:41;8.32;;;1.95;;
69841;SDS011;57138;51.326;-0.068;2022-08-04T01:46:12;10.68;;;2.08;;
69841;SDS011;57138;51.326;-0.068;2022-08-04T01:48:41;5.82;;;1.98;;
69841;SDS011;57138;51.326;-0.068;2022-08-04T01:51:09;6.15;;;1.48;;
69841;SDS011;57138;51.326;-0.068;2022-08-04T01:53:36;11.73;;;2.60;;
69841;SDS011;57138;51.326;-0.068;2022-08-04T01:56:10;7.93;;;1.70;;
69841;SDS011;57138;51.326;-0.068;2022-08-04T01:58:37;5.55;;;1.65;;
69841;SDS011;57138;51.326;-0.068;2022-08-04T02:01:04;7.25;;;1.98;;
69841;SDS011;57138;51.326;-0.068;2022-08-04T02:03:30;7.07;;;1.70;;
69841;SDS011;57138;51.326;-0.068;2022-08-04T02:06:06;11.63;;;2.33;;
69841;SDS011;57138;51.326;-0.068;2022-08-04T02:11:05;10.05;;;1.50;;
69841;SDS011;57138;51.326;-0.068;2022-08-04T02:13:38;7.82;;;2.50;;
69841;SDS011;57138;51.326;-0.068;2022-08-04T02:16:15;6.10;;;1.42;;
69841;SDS011;57138;51.326;-0.068;2022-08-04T02:21:24;4.70;;;1.30;;
69841;SDS011;57138;51.326;-0.068;2022-08-04T02:23:53;7.93;;;1.40;;
69841;SDS011;57138;51.326;-0.068;2022-08-04T02:26:26;6.93;;;1.77;;
69841;SDS011;57138;51.326;-0.068;2022-08-04T02:29:02;4.50;;;1.83;;
69841;SDS011;57138;51.326;-0.068;2022-08-04T02:31:38;6.60;;;1.67;;
69841;SDS011;57138;51.326;-0.068;2022-08-04T02:36:37;7.43;;;2.00;;
69841;SDS011;57138;51.326;-0.068;2022-08-04T02:39:05;8.98;;;1.58;;
69841;SDS011;57138;51.326;-0.068;2022-08-04T02:41:32;6.88;;;1.75;;
69841;SDS011;57138;51.326;-0.068;2022-08-04T02:44:03;6.18;;;1.40;;
69841;SDS011;57138;51.326;-0.068;2022-08-04T02:46:31;7.88;;;2.10;;
69841;SDS011;57138;51.326;-0.068;2022-08-04T02:49:00;6.53;;;1.38;;
69841;SDS011;57138;51.326;-0.068;2022-08-04T02:51:33;9.88;;;2.72;;
69841;SDS011;57138;51.326;-0.068;2022-08-04T02:54:04;7.53;;;1.60;;
69841;SDS011;57138;51.326;-0.068;2022-08-04T02:56:32;6.05;;;1.30;;
69841;SDS011;57138;51.326;-0.068;2022-08-04T03:01:30;9.32;;;1.63;;
69841;SDS011;57138;51.326;-0.068;2022-08-04T03:31:12;7.05;;;1.60;;
69841;SDS011;57138;51.326;-0.068;2022-08-04T03:33:58;6.43;;;1.40;;
69841;SDS011;57138;51.326;-0.068;2022-08-04T03:36:49;10.15;;;2.92;;
69841;SDS011;57138;51.326;-0.068;2022-08-04T03:39:48;8.55;;;1.30;;
69841;SDS011;57138;51.326;-0.068;2022-08-04T03:51:11;8.73;;;1.60;;
69841;SDS011;57138;51.326;-0.068;2022-08-04T03:56:49;7.65;;;2.42;;
69841;SDS011;57138;51.326;-0.068;2022-08-04T04:32:42;9.70;;;2.40;;
69841;SDS011;57138;51.326;-0.068;2022-08-04T04:35:19;8.32;;;2.13;;
69841;SDS011;57138;51.326;-0.068;2022-08-04T04:41:04;7.07;;;2.03;;
69841;SDS011;57138;51.326;-0.068;2022-08-04T04:52:06;9.38;;;2.05;;
69841;SDS011;57138;51.326;-0.068;2022-08-04T04:57:04;10.98;;;2.42;;
69841;SDS011;57138;51.326;-0.068;2022-08-04T04:59:51;10.60;;;2.10;;
69841;SDS011;57138;51.326;-0.068;2022-08-04T05:05:10;11.23;;;2.25;;
69841;SDS011;57138;51.326;-0.068;2022-08-04T05:15:55;10.23;;;2.50;;
69841;SDS011;57138;51.326;-0.068;2022-08-04T05:18:29;13.07;;;2.30;;
69841;SDS011;57138;51.326;-0.068;2022-08-04T05:21:07;9.90;;;1.80;;
69841;SDS011;57138;51.326;-0.068;2022-08-04T05:23:36;13.55;;;2.33;;
69841;SDS011;57138;51.326;-0.068;2022-08-04T05:26:10;7.75;;;1.98;;
69841;SDS011;57138;51.326;-0.068;2022-08-04T05:28:40;9.50;;;2.40;;
69841;SDS011;57138;51.326;-0.068;2022-08-04T05:31:09;11.23;;;2.10;;
69841;SDS011;57138;51.326;-0.068;2022-08-04T05:33:49;15.95;;;2.42;;
69841;SDS011;57138;51.326;-0.068;2022-08-04T05:36:23;10.43;;;3.25;;
69841;SDS011;57138;51.326;-0.068;2022-08-04T05:38:56;8.07;;;1.83;;
69841;SDS011;57138;51.326;-0.068;2022-08-04T05:41:23;9.55;;;2.20;;
69841;SDS011;57138;51.326;-0.068;2022-08-04T05:43:51;14.65;;;3.97;;
69841;SDS011;57138;51.326;-0.068;2022-08-04T05:46:18;9.43;;;1.90;;
69841;SDS011;57138;51.326;-0.068;2022-08-04T05:48:44;7.05;;;2.00;;
69841;SDS011;57138;51.326;-0.068;2022-08-04T05:51:09;14.45;;;2.13;;
69841;SDS011;57138;51.326;-0.068;2022-08-04T05:53:36;8.55;;;1.63;;
69841;SDS011;57138;51.326;-0.068;2022-08-04T05:56:03;7.35;;;1.75;;
69841;SDS011;57138;51.326;-0.068;2022-08-04T05:58:30;16.67;;;3.17;;
69841;SDS011;57138;51.326;-0.068;2022-08-04T06:01:00;12.93;;;2.22;;
69841;SDS011;57138;51.326;-0.068;2022-08-04T06:03:28;11.85;;;2.25;;
69841;SDS011;57138;51.326;-0.068;2022-08-04T06:05:55;10.43;;;1.98;;
69841;SDS011;57138;51.326;-0.068;2022-08-04T06:08:23;12.07;;;3.28;;
69841;SDS011;57138;51.326;-0.068;2022-08-04T06:10:49;6.00;;;1.63;;
69841;SDS011;57138;51.326;-0.068;2022-08-04T06:13:16;7.75;;;1.80;;
69841;SDS011;57138;51.326;-0.068;2022-08-04T06:15:44;10.10;;;2.05;;
69841;SDS011;57138;51.326;-0.068;2022-08-04T06:18:13;7.63;;;1.40;;
69841;SDS011;57138;51.326;-0.068;2022-08-04T06:20:39;9.98;;;2.55;;
69841;SDS011;57138;51.326;-0.068;2022-08-04T06:23:08;8.75;;;2.10;;
69841;SDS011;57138;51.326;-0.068;2022-08-04T06:25:42;12.27;;;1.80;;
69841;SDS011;57138;51.326;-0.068;2022-08-04T06:28:12;12.05;;;2.05;;
69841;SDS011;57138;51.326;-0.068;2022-08-04T06:30:40;10.10;;;2.00;;
69841;SDS011;57138;51.326;-0.068;2022-08-04T06:33:12;10.55;;;1.90;;
69841;SDS011;57138;51.326;-0.068;2022-08-04T06:35:51;13.35;;;3.53;;
69841;SDS011;57138;51.326;-0.068;2022-08-04T06:38:23;17.17;;;2.55;;
69841;SDS011;57138;51.326;-0.068;2022-08-04T06:40:52;8.65;;;1.95;;
69841;SDS011;57138;51.326;-0.068;2022-08-04T06:43:18;7.68;;;1.90;;
69841;SDS011;57138;51.326;-0.068;2022-08-04T06:45:45;6.63;;;1.98;;
69841;SDS011;57138;51.326;-0.068;2022-08-04T06:48:14;7.05;;;1.67;;
69841;SDS011;57138;51.326;-0.068;2022-08-04T06:50:42;11.07;;;2.03;;
69841;SDS011;57138;51.326;-0.068;2022-08-04T06:53:11;8.85;;;1.63;;
69841;SDS011;57138;51.326;-0.068;2022-08-04T06:55:37;9.35;;;1.73;;
69841;SDS011;57138;51.326;-0.068;2022-08-04T06:58:04;9.43;;;2.22;;
69841;SDS011;57138;51.326;-0.068;2022-08-04T07:00:31;13.65;;;2.75;;
69841;SDS011;57138;51.326;-0.068;2022-08-04T07:02:59;13.15;;;2.50;;
69841;SDS011;57138;51.326;-0.068;2022-08-04T07:05:26;11.27;;;2.60;;
69841;SDS011;57138;51.326;-0.068;2022-08-04T07:07:52;9.35;;;1.63;;
69841;SDS011;57138;51.326;-0.068;2022-08-04T07:10:18;8.77;;;1.85;;
69841;SDS011;57138;51.326;-0.068;2022-08-04T07:12:47;7.32;;;1.88;;
69841;SDS011;57138;51.326;-0.068;2022-08-04T07:15:14;8.40;;;2.00;;
69841;SDS011;57138;51.326;-0.068;2022-08-04T07:17:42;8.00;;;1.40;;
69841;SDS011;57138;51.326;-0.068;2022-08-04T07:20:10;8.80;;;1.85;;
69841;SDS011;57138;51.326;-0.068;2022-08-04T07:22:35;11.38;;;1.83;;
69841;SDS011;57138;51.326;-0.068;2022-08-04T07:25:07;7.53;;;1.75;;
69841;SDS011;57138;51.326;-0.068;2022-08-04T07:27:33;10.95;;;1.45;;
69841;SDS011;57138;51.326;-0.068;2022-08-04T07:29:59;12.32;;;1.95;;
69841;SDS011;57138;51.326;-0.068;2022-08-04T07:32:25;8.40;;;1.77;;
69841;SDS011;57138;51.326;-0.068;2022-08-04T07:34:52;11.48;;;2.42;;
69841;SDS011;57138;51.326;-0.068;2022-08-04T07:37:18;10.20;;;2.63;;
69841;SDS011;57138;51.326;-0.068;2022-08-04T07:39:44;10.32;;;2.45;;
69841;SDS011;57138;51.326;-0.068;2022-08-04T07:42:10;11.00;;;1.85;;
69841;SDS011;57138;51.326;-0.068;2022-08-04T07:44:36;12.63;;;2.20;;
69841;SDS011;57138;51.326;-0.068;2022-08-04T07:47:04;9.88;;;1.67;;
69841;SDS011;57138;51.326;-0.068;2022-08-04T07:49:32;6.80;;;1.60;;
69841;SDS011;57138;51.326;-0.068;2022-08-04T07:51:58;9.20;;;2.00;;
69841;SDS011;57138;51.326;-0.068;2022-08-04T07:54:25;10.80;;;2.03;;
69841;SDS011;57138;51.326;-0.068;2022-08-04T07:56:51;7.97;;;2.05;;
69841;SDS011;57138;51.326;-0.068;2022-08-04T07:59:18;9.32;;;1.60;;
69841;SDS011;57138;51.326;-0.068;2022-08-04T08:01:44;6.93;;;1.50;;
69841;SDS011;57138;51.326;-0.068;2022-08-04T08:04:11;9.60;;;2.53;;
69841;SDS011;57138;51.326;-0.068;2022-08-04T08:06:37;6.88;;;1.70;;
69841;SDS011;57138;51.326;-0.068;2022-08-04T08:09:08;5.82;;;1.40;;
69841;SDS011;57138;51.326;-0.068;2022-08-04T08:11:39;5.57;;;1.30;;
69841;SDS011;57138;51.326;-0.068;2022-08-04T08:14:05;6.07;;;1.70;;
69841;SDS011;57138;51.326;-0.068;2022-08-04T08:16:33;9.07;;;2.20;;
69841;SDS011;57138;51.326;-0.068;2022-08-04T08:18:59;6.40;;;2.20;;
69841;SDS011;57138;51.326;-0.068;2022-08-04T08:21:26;8.63;;;2.20;;
69841;SDS011;57138;51.326;-0.068;2022-08-04T08:23:52;6.40;;;1.60;;
69841;SDS011;57138;51.326;-0.068;2022-08-04T08:26:19;9.45;;;1.60;;
69841;SDS011;57138;51.326;-0.068;2022-08-04T08:28:44;4.90;;;1.88;;
69841;SDS011;57138;51.326;-0.068;2022-08-04T08:31:11;6.82;;;1.50;;
69841;SDS011;57138;51.326;-0.068;2022-08-04T08:33:36;6.45;;;1.50;;
69841;SDS011;57138;51.326;-0.068;2022-08-04T08:39:00;5.78;;;1.60;;
69841;SDS011;57138;51.326;-0.068;2022-08-04T08:56:01;11.52;;;2.50;;
69841;SDS011;57138;51.326;-0.068;2022-08-04T09:07:46;10.32;;;1.52;;
69841;SDS011;57138;51.326;-0.068;2022-08-04T09:10:41;6.88;;;1.40;;
69841;SDS011;57138;51.326;-0.068;2022-08-04T09:13:25;10.95;;;1.45;;
69841;SDS011;57138;51.326;-0.068;2022-08-04T09:18:55;5.00;;;1.27;;
69841;SDS011;57138;51.326;-0.068;2022-08-04T09:27:34;4.60;;;1.17;;
69841;SDS011;57138;51.326;-0.068;2022-08-04T09:30:11;6.45;;;1.52;;
69841;SDS011;57138;51.326;-0.068;2022-08-04T09:35:36;5.32;;;1.38;;
69841;SDS011;57138;51.326;-0.068;2022-08-04T09:44:12;3.70;;;0.80;;
69841;SDS011;57138;51.326;-0.068;2022-08-04T09:46:25;6.53;;;1.40;;
69841;SDS011;57138;51.326;-0.068;2022-08-04T09:49:13;5.90;;;1.33;;
69841;SDS011;57138;51.326;-0.068;2022-08-04T09:54:32;6.03;;;1.10;;
69841;SDS011;57138;51.326;-0.068;2022-08-04T09:57:22;6.40;;;1.30;;
69841;SDS011;57138;51.326;-0.068;2022-08-04T10:02:37;6.43;;;1.13;;
69841;SDS011;57138;51.326;-0.068;2022-08-04T10:05:13;6.20;;;1.13;;
69841;SDS011;57138;51.326;-0.068;2022-08-04T10:10:18;4.95;;;1.20;;
69841;SDS011;57138;51.326;-0.068;2022-08-04T10:13:02;7.53;;;1.25;;
69841;SDS011;57138;51.326;-0.068;2022-08-04T10:28:22;10.05;;;1.60;;
69841;SDS011;57138;51.326;-0.068;2022-08-04T10:30:53;6.18;;;1.45;;
69841;SDS011;57138;51.326;-0.068;2022-08-04T10:33:32;12.52;;;2.55;;
69841;SDS011;57138;51.326;-0.068;2022-08-04T10:36:08;6.53;;;1.42;;
69841;SDS011;57138;51.326;-0.068;2022-08-04T10:38:43;8.05;;;1.60;;
69841;SDS011;57138;51.326;-0.068;2022-08-04T10:41:22;28.50;;;2.88;;
69841;SDS011;57138;51.326;-0.068;2022-08-04T10:46:51;7.53;;;1.40;;
69841;SDS011;57138;51.326;-0.068;2022-08-04T10:49:29;8.35;;;1.50;;
69841;SDS011;57138;51.326;-0.068;2022-08-04T10:52:04;7.00;;;2.33;;
69841;SDS011;57138;51.326;-0.068;2022-08-04T10:54:34;6.78;;;1.30;;
69841;SDS011;57138;51.326;-0.068;2022-08-04T10:57:09;7.13;;;1.42;;
69841;SDS011;57138;51.326;-0.068;2022-08-04T11:08:05;4.72;;;1.30;;
69841;SDS011;57138;51.326;-0.068;2022-08-04T11:10:38;6.32;;;1.55;;
69841;SDS011;57138;51.326;-0.068;2022-08-04T11:13:27;2.72;;;1.17;;
69841;SDS011;57138;51.326;-0.068;2022-08-04T11:15:58;6.10;;;1.30;;
69841;SDS011;57138;51.326;-0.068;2022-08-04T11:21:02;5.32;;;1.40;;
69841;SDS011;57138;51.326;-0.068;2022-08-04T11:23:34;7.32;;;1.90;;
69841;SDS011;57138;51.326;-0.068;2022-08-04T11:26:14;4.78;;;1.20;;
69841;SDS011;57138;51.326;-0.068;2022-08-04T11:29:00;3.80;;;0.90;;
69841;SDS011;57138;51.326;-0.068;2022-08-04T11:31:34;6.38;;;1.30;;
69841;SDS011;57138;51.326;-0.068;2022-08-04T11:34:10;8.15;;;1.50;;
69841;SDS011;57138;51.326;-0.068;2022-08-04T11:42:35;6.95;;;1.25;;
69841;SDS011;57138;51.326;-0.068;2022-08-04T11:45:06;5.70;;;1.38;;
69841;SDS011;57138;51.326;-0.068;2022-08-04T11:47:42;6.85;;;1.17;;
69841;SDS011;57138;51.326;-0.068;2022-08-04T11:52:46;4.40;;;0.90;;
69841;SDS011;57138;51.326;-0.068;2022-08-04T11:55:13;5.03;;;1.23;;
69841;SDS011;57138;51.326;-0.068;2022-08-04T11:57:42;2.42;;;0.77;;
69841;SDS011;57138;51.326;-0.068;2022-08-04T12:00:10;6.47;;;1.58;;
69841;SDS011;57138;51.326;-0.068;2022-08-04T12:05:29;4.25;;;1.25;;
69841;SDS011;57138;51.326;-0.068;2022-08-04T12:13:38;4.97;;;1.10;;
69841;SDS011;57138;51.326;-0.068;2022-08-04T12:16:21;7.53;;;1.10;;
69841;SDS011;57138;51.326;-0.068;2022-08-04T12:18:55;3.70;;;0.98;;
69841;SDS011;57138;51.326;-0.068;2022-08-04T12:21:30;6.65;;;1.10;;
69841;SDS011;57138;51.326;-0.068;2022-08-04T12:24:02;4.47;;;1.00;;
69841;SDS011;57138;51.326;-0.068;2022-08-04T12:26:36;4.85;;;1.02;;
69841;SDS011;57138;51.326;-0.068;2022-08-04T12:29:06;5.67;;;1.43;;
69841;SDS011;57138;51.326;-0.068;2022-08-04T12:34:27;5.72;;;1.08;;
69841;SDS011;57138;51.326;-0.068;2022-08-04T12:37:02;5.25;;;0.98;;
69841;SDS011;57138;51.326;-0.068;2022-08-04T12:39:31;6.78;;;1.00;;
69841;SDS011;57138;51.326;-0.068;2022-08-04T12:44:32;3.03;;;0.70;;
69841;SDS011;57138;51.326;-0.068;2022-08-04T12:47:00;4.72;;;1.10;;
69841;SDS011;57138;51.326;-0.068;2022-08-04T12:49:29;6.85;;;1.23;;
69841;SDS011;57138;51.326;-0.068;2022-08-04T12:51:58;7.13;;;1.00;;
69841;SDS011;57138;51.326;-0.068;2022-08-04T12:54:24;5.00;;;0.80;;
69841;SDS011;57138;51.326;-0.068;2022-08-04T12:56:51;2.92;;;0.90;;
69841;SDS011;57138;51.326;-0.068;2022-08-04T12:59:21;4.57;;;0.93;;
69841;SDS011;57138;51.326;-0.068;2022-08-04T13:01:47;2.78;;;0.93;;
69841;SDS011;57138;51.326;-0.068;2022-08-04T13:04:15;3.50;;;0.80;;
69841;SDS011;57138;51.326;-0.068;2022-08-04T13:06:50;2.67;;;0.60;;
69841;SDS011;57138;51.326;-0.068;2022-08-04T13:09:21;6.85;;;1.17;;
69841;SDS011;57138;51.326;-0.068;2022-08-04T13:11:54;10.40;;;0.90;;
69841;SDS011;57138;51.326;-0.068;2022-08-04T13:14:23;3.92;;;0.88;;
69841;SDS011;57138;51.326;-0.068;2022-08-04T13:16:59;3.22;;;0.90;;
69841;SDS011;57138;51.326;-0.068;2022-08-04T13:19:26;4.50;;;0.88;;
69841;SDS011;57138;51.326;-0.068;2022-08-04T13:21:53;3.28;;;0.95;;
69841;SDS011;57138;51.326;-0.068;2022-08-04T13:24:21;3.35;;;0.70;;
69841;SDS011;57138;51.326;-0.068;2022-08-04T13:29:18;4.00;;;1.00;;
69841;SDS011;57138;51.326;-0.068;2022-08-04T13:31:46;4.82;;;0.77;;
69841;SDS011;57138;51.326;-0.068;2022-08-04T13:34:14;4.10;;;0.80;;
69841;SDS011;57138;51.326;-0.068;2022-08-04T13:36:41;3.17;;;0.93;;
69841;SDS011;57138;51.326;-0.068;2022-08-04T13:39:17;5.22;;;0.93;;
69841;SDS011;57138;51.326;-0.068;2022-08-04T13:41:45;8.52;;;0.90;;
69841;SDS011;57138;51.326;-0.068;2022-08-04T13:44:13;5.68;;;0.90;;
69841;SDS011;57138;51.326;-0.068;2022-08-04T13:46:45;5.35;;;1.10;;
69841;SDS011;57138;51.326;-0.068;2022-08-04T13:49:14;4.70;;;0.90;;
69841;SDS011;57138;51.326;-0.068;2022-08-04T13:51:51;5.68;;;0.98;;
69841;SDS011;57138;51.326;-0.068;2022-08-04T13:54:19;4.75;;;1.10;;
69841;SDS011;57138;51.326;-0.068;2022-08-04T13:56:46;6.65;;;0.95;;
69841;SDS011;57138;51.326;-0.068;2022-08-04T13:59:14;6.30;;;1.10;;
69841;SDS011;57138;51.326;-0.068;2022-08-04T14:01:43;7.25;;;1.00;;
69841;SDS011;57138;51.326;-0.068;2022-08-04T14:04:11;4.90;;;1.17;;
69841;SDS011;57138;51.326;-0.068;2022-08-04T14:06:52;6.88;;;1.17;;
69841;SDS011;57138;51.326;-0.068;2022-08-04T14:09:25;3.85;;;0.90;;
69841;SDS011;57138;51.326;-0.068;2022-08-04T14:11:53;2.88;;;1.27;;
69841;SDS011;57138;51.326;-0.068;2022-08-04T14:14:28;5.03;;;1.45;;
69841;SDS011;57138;51.326;-0.068;2022-08-04T14:16:56;4.32;;;1.20;;
69841;SDS011;57138;51.326;-0.068;2022-08-04T14:19:22;4.03;;;0.85;;
69841;SDS011;57138;51.326;-0.068;2022-08-04T14:21:48;4.72;;;1.13;;
69841;SDS011;57138;51.326;-0.068;2022-08-04T14:24:27;3.22;;;0.80;;
69841;SDS011;57138;51.326;-0.068;2022-08-04T14:26:59;3.58;;;0.70;;
69841;SDS011;57138;51.326;-0.068;2022-08-04T14:29:25;2.72;;;0.73;;
69841;SDS011;57138;51.326;-0.068;2022-08-04T14:32:01;4.47;;;0.82;;
69841;SDS011;57138;51.326;-0.068;2022-08-04T14:34:29;4.70;;;0.85;;
69841;SDS011;57138;51.326;-0.068;2022-08-04T14:36:55;5.07;;;0.90;;
69841;SDS011;57138;51.326;-0.068;2022-08-04T14:39:37;3.03;;;0.85;;
69841;SDS011;57138;51.326;-0.068;2022-08-04T14:42:03;2.83;;;0.70;;
69841;SDS011;57138;51.326;-0.068;2022-08-04T14:44:29;16.48;;;1.63;;
69841;SDS011;57138;51.326;-0.068;2022-08-04T14:46:55;6.40;;;1.42;;
69841;SDS011;57138;51.326;-0.068;2022-08-04T14:49:23;3.67;;;0.80;;
69841;SDS011;57138;51.326;-0.068;2022-08-04T14:51:54;2.85;;;0.90;;
69841;SDS011;57138;51.326;-0.068;2022-08-04T14:54:33;3.15;;;1.00;;
69841;SDS011;57138;51.326;-0.068;2022-08-04T14:57:04;4.03;;;0.75;;
69841;SDS011;57138;51.326;-0.068;2022-08-04T14:59:45;3.47;;;0.93;;
69841;SDS011;57138;51.326;-0.068;2022-08-04T15:02:13;5.05;;;0.90;;
69841;SDS011;57138;51.326;-0.068;2022-08-04T15:04:39;5.47;;;1.05;;
69841;SDS011;57138;51.326;-0.068;2022-08-04T15:07:06;5.43;;;1.05;;
69841;SDS011;57138;51.326;-0.068;2022-08-04T15:09:32;3.97;;;0.82;;
69841;SDS011;57138;51.326;-0.068;2022-08-04T15:11:59;4.32;;;1.08;;
69841;SDS011;57138;51.326;-0.068;2022-08-04T15:14:24;4.78;;;1.15;;
69841;SDS011;57138;51.326;-0.068;2022-08-04T15:16:50;4.00;;;0.93;;
69841;SDS011;57138;51.326;-0.068;2022-08-04T15:19:16;3.38;;;1.02;;
69841;SDS011;57138;51.326;-0.068;2022-08-04T15:21:42;3.97;;;0.95;;
69841;SDS011;57138;51.326;-0.068;2022-08-04T15:24:08;5.95;;;0.90;;
69841;SDS011;57138;51.326;-0.068;2022-08-04T15:26:40;4.97;;;1.00;;
69841;SDS011;57138;51.326;-0.068;2022-08-04T15:29:16;2.45;;;0.65;;
69841;SDS011;57138;51.326;-0.068;2022-08-04T15:32:02;4.47;;;0.82;;
69841;SDS011;57138;51.326;-0.068;2022-08-04T15:34:43;1.65;;;0.52;;
69841;SDS011;57138;51.326;-0.068;2022-08-04T15:37:29;3.15;;;0.77;;
69841;SDS011;57138;51.326;-0.068;2022-08-04T15:42:45;5.32;;;1.20;;
69841;SDS011;57138;51.326;-0.068;2022-08-04T15:45:19;4.63;;;1.17;;
69841;SDS011;57138;51.326;-0.068;2022-08-04T15:48:17;5.45;;;1.17;;
69841;SDS011;57138;51.326;-0.068;2022-08-04T15:56:41;6.13;;;1.95;;
69841;SDS011;57138;51.326;-0.068;2022-08-04T15:59:11;2.58;;;0.60;;
69841;SDS011;57138;51.326;-0.068;2022-08-04T16:01:37;8.68;;;1.23;;
69841;SDS011;57138;51.326;-0.068;2022-08-04T16:04:22;4.70;;;1.02;;
69841;SDS011;57138;51.326;-0.068;2022-08-04T16:06:48;4.38;;;0.80;;
69841;SDS011;57138;51.326;-0.068;2022-08-04T16:09:22;4.57;;;1.58;;
69841;SDS011;57138;51.326;-0.068;2022-08-04T16:11:50;3.42;;;0.75;;
69841;SDS011;57138;51.326;-0.068;2022-08-04T16:14:16;4.70;;;1.05;;
69841;SDS011;57138;51.326;-0.068;2022-08-04T16:22:30;5.22;;;0.80;;
69841;SDS011;57138;51.326;-0.068;2022-08-04T16:24:58;2.85;;;0.80;;
69841;SDS011;57138;51.326;-0.068;2022-08-04T16:27:34;1.65;;;0.57;;
69841;SDS011;57138;51.326;-0.068;2022-08-04T16:30:03;4.50;;;0.77;;
69841;SDS011;57138;51.326;-0.068;2022-08-04T16:32:40;5.32;;;0.80;;
69841;SDS011;57138;51.326;-0.068;2022-08-04T16:35:20;4.03;;;1.10;;
69841;SDS011;57138;51.326;-0.068;2022-08-04T16:38:13;3.25;;;0.80;;
69841;SDS011;57138;51.326;-0.068;2022-08-04T16:40:40;5.50;;;0.90;;
69841;SDS011;57138;51.326;-0.068;2022-08-04T16:48:24;3.33;;;1.10;;
69841;SDS011;57138;51.326;-0.068;2022-08-04T16:50:55;4.78;;;0.82;;
69841;SDS011;57138;51.326;-0.068;2022-08-04T16:53:25;4.57;;;1.00;;
69841;SDS011;57138;51.326;-0.068;2022-08-04T16:55:57;3.65;;;0.90;;
69841;SDS011;57138;51.326;-0.068;2022-08-04T16:58:27;6.07;;;0.77;;
69841;SDS011;57138;51.326;-0.068;2022-08-04T17:00:54;4.35;;;0.82;;
69841;SDS011;57138;51.326;-0.068;2022-08-04T17:03:20;5.47;;;1.10;;
69841;SDS011;57138;51.326;-0.068;2022-08-04T17:05:46;3.78;;;0.82;;
69841;SDS011;57138;51.326;-0.068;2022-08-04T17:08:12;2.95;;;0.90;;
69841;SDS011;57138;51.326;-0.068;2022-08-04T17:10:42;5.07;;;1.00;;
69841;SDS011;57138;51.326;-0.068;2022-08-04T17:13:22;7.97;;;0.90;;
69841;SDS011;57138;51.326;-0.068;2022-08-04T17:15:58;3.22;;;0.70;;
69841;SDS011;57138;51.326;-0.068;2022-08-04T17:18:33;5.00;;;0.88;;
69841;SDS011;57138;51.326;-0.068;2022-08-04T17:21:37;4.63;;;0.80;;
69841;SDS011;57138;51.326;-0.068;2022-08-04T17:23:58;3.45;;;1.23;;
69841;SDS011;57138;51.326;-0.068;2022-08-04T17:26:35;4.95;;;1.05;;
69841;SDS011;57138;51.326;-0.068;2022-08-04T17:29:02;6.93;;;1.70;;
69841;SDS011;57138;51.326;-0.068;2022-08-04T17:31:29;6.78;;;1.30;;
69841;SDS011;57138;51.326;-0.068;2022-08-04T17:33:56;3.85;;;1.40;;
69841;SDS011;57138;51.326;-0.068;2022-08-04T17:36:28;4.45;;;1.20;;
69841;SDS011;57138;51.326;-0.068;2022-08-04T17:38:59;2.97;;;0.82;;
69841;SDS011;57138;51.326;-0.068;2022-08-04T17:41:27;6.78;;;3.00;;
69841;SDS011;57138;51.326;-0.068;2022-08-04T17:43:55;9.10;;;3.10;;
69841;SDS011;57138;51.326;-0.068;2022-08-04T17:54:12;4.07;;;1.45;;
69841;SDS011;57138;51.326;-0.068;2022-08-04T17:56:41;4.93;;;0.85;;
69841;SDS011;57138;51.326;-0.068;2022-08-04T17:59:09;4.50;;;1.30;;
69841;SDS011;57138;51.326;-0.068;2022-08-04T18:01:43;3.43;;;1.00;;
69841;SDS011;57138;51.326;-0.068;2022-08-04T18:07:02;5.00;;;1.05;;
69841;SDS011;57138;51.326;-0.068;2022-08-04T18:09:38;2.83;;;1.20;;
69841;SDS011;57138;51.326;-0.068;2022-08-04T18:12:08;3.38;;;0.80;;
69841;SDS011;57138;51.326;-0.068;2022-08-04T18:14:46;4.57;;;0.77;;
69841;SDS011;57138;51.326;-0.068;2022-08-04T18:17:14;5.70;;;1.00;;
69841;SDS011;57138;51.326;-0.068;2022-08-04T18:19:56;3.67;;;0.73;;
69841;SDS011;57138;51.326;-0.068;2022-08-04T18:22:21;3.30;;;0.70;;
69841;SDS011;57138;51.326;-0.068;2022-08-04T18:24:47;4.00;;;0.82;;
69841;SDS011;57138;51.326;-0.068;2022-08-04T18:27:13;2.97;;;0.90;;
69841;SDS011;57138;51.326;-0.068;2022-08-04T18:29:40;2.60;;;0.68;;
69841;SDS011;57138;51.326;-0.068;2022-08-04T18:32:06;4.68;;;0.90;;
69841;SDS011;57138;51.326;-0.068;2022-08-04T18:34:32;2.45;;;0.55;;
69841;SDS011;57138;51.326;-0.068;2022-08-04T18:36:58;3.38;;;0.80;;
69841;SDS011;57138;51.326;-0.068;2022-08-04T18:39:24;3.38;;;0.45;;
69841;SDS011;57138;51.326;-0.068;2022-08-04T18:41:52;6.18;;;0.95;;
69841;SDS011;57138;51.326;-0.068;2022-08-04T18:44:17;4.82;;;0.70;;
69841;SDS011;57138;51.326;-0.068;2022-08-04T18:46:44;3.45;;;0.90;;
69841;SDS011;57138;51.326;-0.068;2022-08-04T18:49:09;4.65;;;0.93;;
69841;SDS011;57138;51.326;-0.068;2022-08-04T18:51:35;4.55;;;0.88;;
69841;SDS011;57138;51.326;-0.068;2022-08-04T18:54:01;3.50;;;0.70;;
69841;SDS011;57138;51.326;-0.068;2022-08-04T18:56:29;4.80;;;1.08;;
69841;SDS011;57138;51.326;-0.068;2022-08-04T18:58:55;3.75;;;0.90;;
69841;SDS011;57138;51.326;-0.068;2022-08-04T19:01:21;3.42;;;0.85;;
69841;SDS011;57138;51.326;-0.068;2022-08-04T19:03:46;5.75;;;0.75;;
69841;SDS011;57138;51.326;-0.068;2022-08-04T19:06:12;5.35;;;1.10;;
69841;SDS011;57138;51.326;-0.068;2022-08-04T19:08:38;5.43;;;0.65;;
69841;SDS011;57138;51.326;-0.068;2022-08-04T19:11:04;5.85;;;1.35;;
69841;SDS011;57138;51.326;-0.068;2022-08-04T19:13:30;2.72;;;0.80;;
69841;SDS011;57138;51.326;-0.068;2022-08-04T19:15:56;5.45;;;0.85;;
69841;SDS011;57138;51.326;-0.068;2022-08-04T19:18:22;2.47;;;0.55;;
69841;SDS011;57138;51.326;-0.068;2022-08-04T19:20:49;6.75;;;0.70;;
69841;SDS011;57138;51.326;-0.068;2022-08-04T19:23:15;3.70;;;0.75;;
69841;SDS011;57138;51.326;-0.068;2022-08-04T19:25:41;5.10;;;1.33;;
69841;SDS011;57138;51.326;-0.068;2022-08-04T19:28:07;3.42;;;0.75;;
69841;SDS011;57138;51.326;-0.068;2022-08-04T19:30:33;5.18;;;1.48;;
69841;SDS011;57138;51.326;-0.068;2022-08-04T19:32:58;4.10;;;0.85;;